Time;durP1;ratioP1;P1;durP2;ratioP2;P2;SDS_P1;SDS_P2;PMS_P1;PMS_P2;Temp;Humidity;BMP_temperature;BMP_pressure;BME280_temperature;BME280_humidity;BME280_pressure;Samples;Min_cycle;Max_cycle;Signal;HPM_P1;HPM_P2
2022/04/23 00:01:09;;;;;;;11.68;6.20;;;;;;;19.42;36.66;100133.69;5035716;28;20536;-69
2022/04/23 00:03:35;;;;;;;9.07;6.45;;;;;;;19.38;37.23;100126.94;5019337;28;20075;-69
2022/04/23 00:06:01;;;;;;;12.07;6.95;;;;;;;19.41;37.36;100134.72;5036001;28;20078;-68
2022/04/23 00:08:26;;;;;;;11.02;6.88;;;;;;;19.39;36.92;100136.78;5035976;28;20025;-69
2022/04/23 00:10:52;;;;;;;11.77;6.80;;;;;;;19.38;37.58;100132.34;5053262;28;20364;-69
2022/04/23 00:13:17;;;;;;;10.02;6.15;;;;;;;19.37;37.27;100149.72;5035570;28;20122;-69
2022/04/23 00:15:43;;;;;;;10.65;6.80;;;;;;;19.35;37.33;100138.19;5035473;28;20020;-69
2022/04/23 00:18:09;;;;;;;10.15;6.28;;;;;;;19.32;37.59;100130.47;5035459;28;20053;-69
2022/04/23 00:20:36;;;;;;;14.07;7.47;;;;;;;19.31;37.60;100128.78;5019011;28;20044;-69
2022/04/23 00:23:03;;;;;;;12.63;7.25;;;;;;;19.28;37.30;100124.59;5051600;28;20027;-69
2022/04/23 00:25:29;;;;;;;12.35;6.95;;;;;;;19.26;37.23;100123.13;5035520;28;20048;-69
2022/04/23 00:27:54;;;;;;;11.18;6.78;;;;;;;19.24;37.47;100123.31;5035594;28;20040;-69
2022/04/23 00:30:20;;;;;;;11.55;7.03;;;;;;;19.24;37.13;100119.75;5035674;28;20025;-69
2022/04/23 00:32:46;;;;;;;12.20;7.60;;;;;;;19.20;37.44;100116.63;5035519;28;20087;-70
2022/04/23 00:35:15;;;;;;;10.13;7.00;;;;;;;19.17;37.26;100117.88;5035453;28;20418;-69
2022/04/23 00:37:41;;;;;;;12.40;7.50;;;;;;;19.16;37.41;100118.91;5056205;28;20029;-69
2022/04/23 00:40:08;;;;;;;11.95;7.60;;;;;;;19.13;37.72;100130.19;5056855;28;20021;-69
2022/04/23 00:42:45;;;;;;;9.95;6.57;;;;;;;19.11;37.83;100129.53;5056635;28;20445;-69
2022/04/23 00:45:10;;;;;;;13.05;7.07;;;;;;;19.07;37.10;100127.41;5038959;28;20039;-69
2022/04/23 00:47:36;;;;;;;10.85;7.40;;;;;;;19.03;37.67;100124.28;5038728;28;20025;-69
2022/04/23 00:50:02;;;;;;;15.90;7.53;;;;;;;19.01;37.75;100129.06;5056654;28;20045;-68
2022/04/23 00:52:27;;;;;;;13.90;7.95;;;;;;;19.00;38.16;100126.56;5055467;28;20033;-69
2022/04/23 00:54:53;;;;;;;13.60;8.05;;;;;;;18.97;38.63;100121.53;5022490;28;20545;-69
2022/04/23 00:57:20;;;;;;;12.98;7.43;;;;;;;18.96;37.65;100120.69;5022153;28;20028;-69
2022/04/23 00:59:47;;;;;;;14.13;7.63;;;;;;;18.92;37.80;100118.59;5038866;28;20028;-69
2022/04/23 01:02:12;;;;;;;12.88;8.43;;;;;;;18.88;38.07;100111.88;5038398;28;20025;-69
2022/04/23 01:04:38;;;;;;;17.73;7.45;;;;;;;18.84;38.18;100114.16;5055753;28;20509;-69
2022/04/23 01:07:04;;;;;;;11.23;8.00;;;;;;;18.82;37.79;100118.94;5038491;28;20021;-69
2022/04/23 01:09:29;;;;;;;16.30;7.93;;;;;;;18.79;38.41;100124.75;5056305;28;20020;-69
2022/04/23 01:11:57;;;;;;;14.27;7.75;;;;;;;18.77;37.83;100115.13;5038815;28;20025;-68
2022/04/23 01:14:23;;;;;;;13.60;8.05;;;;;;;18.73;38.29;100114.72;5038474;28;20025;-69
2022/04/23 01:16:49;;;;;;;12.48;7.75;;;;;;;18.70;38.55;100108.84;5056209;28;20095;-68
2022/04/23 01:19:14;;;;;;;12.43;7.55;;;;;;;18.65;38.62;100114.03;5038068;28;20021;-69
2022/04/23 01:21:39;;;;;;;12.07;8.02;;;;;;;18.63;38.53;100118.81;5038260;28;20059;-69
2022/04/23 01:24:06;;;;;;;16.73;8.13;;;;;;;18.60;38.43;100120.03;5038378;28;20155;-69
2022/04/23 01:26:32;;;;;;;12.00;8.25;;;;;;;18.57;39.06;100109.59;5038012;28;20021;-69
2022/04/23 01:28:57;;;;;;;15.93;8.65;;;;;;;18.54;38.51;100110.81;5037841;28;20057;-69
2022/04/23 01:31:23;;;;;;;15.88;8.48;;;;;;;18.52;38.79;100103.91;5055692;28;20056;-69
2022/04/23 01:33:49;;;;;;;13.98;7.68;;;;;;;18.52;38.87;100114.78;5038159;28;20486;-70
2022/04/23 01:36:15;;;;;;;18.23;8.73;;;;;;;18.47;38.94;100109.06;5037942;28;20020;-69
2022/04/23 01:38:42;;;;;;;16.20;9.10;;;;;;;18.44;38.69;100115.75;5038022;28;20161;-70
2022/04/23 01:41:07;;;;;;;15.40;8.40;;;;;;;18.44;39.42;100114.91;5055285;28;20364;-70
2022/04/23 01:43:32;;;;;;;9.93;7.40;;;;;;;18.42;38.69;100108.84;5037851;28;20024;-69
2022/04/23 01:45:58;;;;;;;12.93;7.85;;;;;;;18.40;38.56;100119.88;5055465;28;20486;-69
2022/04/23 01:48:23;;;;;;;13.75;8.35;;;;;;;18.39;38.59;100117.38;5054535;28;20652;-69
2022/04/23 01:50:50;;;;;;;12.80;7.55;;;;;;;18.38;38.21;100115.69;5055549;28;20400;-69
2022/04/23 01:53:15;;;;;;;13.25;8.45;;;;;;;18.37;38.42;100114.84;5055487;28;20021;-69
2022/04/23 01:55:41;;;;;;;12.15;7.93;;;;;;;18.36;38.93;100121.31;5037702;28;20028;-69
2022/04/23 01:58:06;;;;;;;16.05;9.38;;;;;;;18.35;39.08;100116.06;5055423;28;20032;-69
2022/04/23 02:00:31;;;;;;;14.63;8.02;;;;;;;18.32;38.92;100121.88;5020896;28;20360;-69
2022/04/23 02:02:57;;;;;;;13.70;8.35;;;;;;;18.30;39.36;100121.25;5037753;28;20384;-69
2022/04/23 02:05:24;;;;;;;10.80;7.70;;;;;;;18.28;39.23;100118.75;5021824;28;20131;-68
2022/04/23 02:07:49;;;;;;;12.48;8.15;;;;;;;18.26;38.74;100122.66;5055150;28;20025;-69
2022/04/23 02:10:15;;;;;;;14.85;8.55;;;;;;;18.26;38.94;100117.25;5055127;28;20021;-69
2022/04/23 02:12:41;;;;;;;14.35;8.38;;;;;;;18.24;39.27;100114.75;5020576;28;20170;-69
2022/04/23 02:15:10;;;;;;;12.27;8.80;;;;;;;18.23;38.31;100118.47;5054677;28;20048;-70
2022/04/23 02:17:41;;;;;;;15.18;8.40;;;;;;;18.18;40.23;100115.50;5020084;28;20047;-70
2022/04/23 02:20:08;;;;;;;12.93;9.05;;;;;;;18.17;39.79;100123.84;5036913;28;20029;-69
2022/04/23 02:22:34;;;;;;;19.58;9.23;;;;;;;18.12;39.90;100121.72;5054754;28;20017;-69
2022/04/23 02:24:59;;;;;;;13.60;8.43;;;;;;;18.12;39.68;100112.75;5037079;28;20055;-68
2022/04/23 02:27:25;;;;;;;18.60;9.50;;;;;;;18.10;39.03;100117.53;5053479;28;20032;-69
2022/04/23 02:29:54;;;;;;;14.35;9.48;;;;;;;18.08;39.27;100114.19;5053637;28;20021;-69
2022/04/23 02:32:20;;;;;;;14.55;9.05;;;;;;;18.06;39.66;100124.38;5037066;28;20021;-70
2022/04/23 02:34:46;;;;;;;14.88;9.45;;;;;;;18.02;39.38;100111.22;5054516;28;20036;-69
2022/04/23 02:37:11;;;;;;;18.30;9.50;;;;;;;18.02;39.11;100110.38;5036853;28;20103;-69
2022/04/23 02:39:38;;;;;;;15.80;9.32;;;;;;;18.04;39.81;100114.56;5036621;28;20064;-69
2022/04/23 02:42:04;;;;;;;15.15;9.43;;;;;;;18.03;40.03;100118.28;5054537;28;20025;-68
2022/04/23 02:44:30;;;;;;;14.70;9.10;;;;;;;18.02;39.27;100116.63;5036523;28;20409;-69
2022/04/23 02:46:55;;;;;;;16.58;9.90;;;;;;;17.98;39.36;100118.03;5036346;28;20115;-69
2022/04/23 02:49:22;;;;;;;17.55;9.48;;;;;;;17.98;39.32;100115.34;5036584;28;20108;-68
2022/04/23 02:51:47;;;;;;;15.02;9.52;;;;;;;17.97;39.72;100112.84;5036273;28;20406;-69
2022/04/23 02:54:13;;;;;;;18.88;10.23;;;;;;;17.94;40.20;100114.06;5019728;28;20021;-69
2022/04/23 02:56:38;;;;;;;17.05;9.38;;;;;;;17.91;39.37;100109.03;5053964;28;20037;-69
2022/04/23 02:59:04;;;;;;;19.25;9.43;;;;;;;17.86;40.36;100108.78;5036397;28;20036;-68
2022/04/23 03:01:30;;;;;;;16.58;9.82;;;;;;;17.84;39.67;100113.53;5036090;28;20025;-68
2022/04/23 03:03:56;;;;;;;17.13;10.25;;;;;;;17.84;39.96;100112.69;5036377;28;20048;-70
2022/04/23 03:06:28;;;;;;;16.70;10.25;;;;;;;17.80;39.12;100109.56;5019628;28;20017;-69
2022/04/23 03:08:54;;;;;;;18.25;10.18;;;;;;;17.77;39.61;100107.22;5053862;28;20063;-68
2022/04/23 03:11:19;;;;;;;15.25;9.60;;;;;;;17.75;39.40;100106.59;5053854;28;20376;-68
2022/04/23 03:13:44;;;;;;;16.65;10.23;;;;;;;17.72;39.71;100104.25;5036238;28;20029;-69
2022/04/23 03:16:10;;;;;;;18.17;10.27;;;;;;;17.73;39.66;100111.34;5019329;28;20387;-68
2022/04/23 03:18:35;;;;;;;15.25;9.85;;;;;;;17.66;39.76;100105.03;5019579;28;20505;-69
2022/04/23 03:21:02;;;;;;;15.88;9.32;;;;;;;17.70;39.84;100116.31;5035975;28;20032;-69
2022/04/23 03:23:27;;;;;;;15.35;9.48;;;;;;;17.67;40.49;100112.09;5053616;28;20435;-69
2022/04/23 03:25:53;;;;;;;14.00;8.88;;;;;;;17.67;41.10;100112.09;5035761;28;20122;-69
2022/04/23 03:28:18;;;;;;;16.02;10.13;;;;;;;17.65;40.84;100103.34;5035736;28;20041;-69
2022/04/23 03:30:44;;;;;;;16.92;9.73;;;;;;;17.65;39.64;100111.47;5035840;28;20032;-69
2022/04/23 03:33:10;;;;;;;16.13;9.23;;;;;;;17.63;39.80;100110.81;5035526;28;20036;-69
2022/04/23 03:35:35;;;;;;;18.90;9.88;;;;;;;17.61;39.68;100107.47;5035835;28;20024;-69
2022/04/23 03:38:01;;;;;;;18.95;9.70;;;;;;;17.59;40.37;100108.72;5035897;28;20103;-69
2022/04/23 03:40:26;;;;;;;15.90;9.15;;;;;;;17.59;40.82;100106.81;5053381;28;20066;-68
2022/04/23 03:42:52;;;;;;;17.60;10.30;;;;;;;17.58;40.77;100109.72;5035704;28;20025;-68
2022/04/23 03:45:18;;;;;;;16.77;9.00;;;;;;;17.57;40.67;100100.75;5035753;28;20052;-70
2022/04/23 03:47:47;;;;;;;16.02;9.52;;;;;;;17.57;39.85;100108.03;5053456;28;20379;-70
2022/04/23 03:50:14;;;;;;;17.48;10.00;;;;;;;17.54;40.82;100094.88;5019126;28;20025;-69
2022/04/23 03:52:40;;;;;;;16.35;10.05;;;;;;;17.52;40.91;100100.47;5035678;28;20029;-69
2022/04/23 03:55:05;;;;;;;16.08;9.80;;;;;;;17.53;40.38;100104.88;5035458;28;20494;-69
2022/04/23 03:57:32;;;;;;;14.75;9.35;;;;;;;17.52;40.18;100100.47;5035812;28;20029;-69
2022/04/23 03:59:57;;;;;;;18.50;10.00;;;;;;;17.50;40.88;100104.41;5018900;28;20429;-69
2022/04/23 04:02:23;;;;;;;15.80;9.25;;;;;;;17.49;41.08;100106.25;5053336;28;20036;-69
2022/04/23 04:04:48;;;;;;;16.23;9.57;;;;;;;17.48;41.04;100102.72;5035603;28;20033;-69
2022/04/23 04:07:18;;;;;;;16.20;9.13;;;;;;;17.46;40.20;100104.78;5035447;28;20021;-69
2022/04/23 04:09:44;;;;;;;15.43;9.88;;;;;;;17.44;40.93;100103.28;5035422;28;20036;-69
2022/04/23 04:12:10;;;;;;;15.80;10.27;;;;;;;17.43;40.95;100104.31;5021829;28;20029;-70
2022/04/23 04:14:36;;;;;;;17.30;10.20;;;;;;;17.43;40.25;100098.91;5039441;28;20059;-69
2022/04/23 04:17:05;;;;;;;23.35;10.13;;;;;;;17.42;40.90;100099.91;5039864;28;20074;-69
2022/04/23 04:19:34;;;;;;;17.45;9.32;;;;;;;17.41;40.34;100095.56;5039516;28;20033;-69
2022/04/23 04:22:02;;;;;;;15.43;8.70;;;;;;;17.37;40.80;100095.09;5039999;28;20033;-69
2022/04/23 04:24:27;;;;;;;18.83;9.95;;;;;;;17.40;41.66;100099.28;5057683;28;20029;-69
2022/04/23 04:26:53;;;;;;;18.38;9.38;;;;;;;17.40;41.06;100104.69;5055728;28;20431;-69
2022/04/23 04:29:19;;;;;;;16.08;9.48;;;;;;;17.40;40.54;100102.81;5038969;28;20064;-69
2022/04/23 04:31:47;;;;;;;17.17;9.68;;;;;;;17.38;39.98;100102.19;5039155;28;20407;-69
2022/04/23 04:34:13;;;;;;;17.52;9.85;;;;;;;17.37;40.06;100096.94;5023248;28;20382;-69
2022/04/23 04:36:39;;;;;;;16.92;9.30;;;;;;;17.35;40.27;100096.31;5022605;28;20032;-69
2022/04/23 04:39:04;;;;;;;12.73;8.43;;;;;;;17.33;40.77;100095.66;5039140;28;20029;-69
2022/04/23 04:41:31;;;;;;;17.20;10.18;;;;;;;17.30;40.35;100093.34;5022026;28;20024;-69
2022/04/23 04:43:57;;;;;;;17.80;9.80;;;;;;;17.29;40.92;100086.25;5038967;28;20025;-70
2022/04/23 04:46:22;;;;;;;14.15;8.32;;;;;;;17.28;41.91;100093.50;5056561;28;20359;-69
2022/04/23 04:48:48;;;;;;;14.40;8.70;;;;;;;17.26;41.61;100098.28;5038402;28;20033;-68
2022/04/23 04:51:13;;;;;;;14.05;8.75;;;;;;;17.25;41.89;100096.59;5038876;28;20036;-69
2022/04/23 04:53:38;;;;;;;14.55;9.02;;;;;;;17.24;40.28;100091.38;5056550;28;20029;-70
2022/04/23 04:56:05;;;;;;;15.68;8.75;;;;;;;17.26;40.57;100089.31;5022097;28;20029;-69
2022/04/23 04:58:30;;;;;;;16.40;9.13;;;;;;;17.24;41.36;100083.28;5056598;28;20472;-69
2022/04/23 05:00:56;;;;;;;16.48;9.30;;;;;;;17.28;40.64;100084.59;5056523;28;20053;-69
2022/04/23 05:03:21;;;;;;;14.32;8.85;;;;;;;17.30;40.66;100087.94;5038615;28;20045;-69
2022/04/23 05:05:47;;;;;;;14.43;9.15;;;;;;;17.32;41.10;100080.44;5038372;28;20025;-69
2022/04/23 05:08:12;;;;;;;18.48;9.50;;;;;;;17.37;41.73;100095.09;5038685;28;20031;-69
2022/04/23 05:10:38;;;;;;;15.52;9.52;;;;;;;17.40;40.85;100088.44;5022002;28;20040;-68
2022/04/23 05:13:03;;;;;;;16.15;9.20;;;;;;;17.47;41.48;100094.78;5038310;28;20028;-68
2022/04/23 05:15:28;;;;;;;14.82;8.93;;;;;;;17.51;41.38;100084.38;5056360;28;20021;-69
2022/04/23 05:17:54;;;;;;;15.35;9.02;;;;;;;17.57;40.71;100092.63;5038075;28;20029;-69
2022/04/23 05:20:19;;;;;;;15.43;9.30;;;;;;;17.64;41.19;100093.56;5038046;28;20140;-69
2022/04/23 05:22:45;;;;;;;14.10;8.30;;;;;;;17.70;40.61;100090.03;5038075;28;20031;-69
2022/04/23 05:25:10;;;;;;;11.88;8.40;;;;;;;17.78;41.34;100092.63;5025496;28;20041;-69
2022/04/23 05:27:36;;;;;;;14.52;8.20;;;;;;;17.85;40.78;100090.00;5027861;28;20025;-69
2022/04/23 05:30:01;;;;;;;14.05;8.45;;;;;;;17.92;41.40;100080.88;5044060;28;20485;-69
2022/04/23 05:32:27;;;;;;;17.85;8.85;;;;;;;18.01;41.68;100087.84;5027999;28;20064;-69
2022/04/23 05:34:52;;;;;;;15.82;8.70;;;;;;;18.10;40.17;100082.28;5048826;28;20016;-69
2022/04/23 05:37:18;;;;;;;14.48;7.80;;;;;;;18.20;41.27;100088.22;5043631;28;20045;-69
2022/04/23 05:39:43;;;;;;;19.20;8.63;;;;;;;18.27;40.30;100079.09;5027179;28;20036;-69
2022/04/23 05:42:09;;;;;;;12.98;8.05;;;;;;;18.38;40.68;100080.41;5027491;28;20030;-69
2022/04/23 05:44:34;;;;;;;16.83;9.13;;;;;;;18.46;40.38;100088.41;5025688;28;20025;-69
2022/04/23 05:46:59;;;;;;;17.60;9.65;;;;;;;18.56;39.70;100086.22;5027609;28;20033;-68
2022/04/23 05:49:27;;;;;;;20.05;9.13;;;;;;;18.65;40.47;100086.91;5010232;28;20395;-69
2022/04/23 05:51:52;;;;;;;14.07;8.32;;;;;;;18.75;39.99;100082.78;5025537;28;20054;-69
2022/04/23 05:54:18;;;;;;;16.35;8.75;;;;;;;18.89;40.01;100087.25;5025801;28;20033;-69
2022/04/23 05:56:43;;;;;;;13.35;8.48;;;;;;;19.04;40.81;100078.94;5044400;28;20029;-69
2022/04/23 05:59:08;;;;;;;15.52;7.72;;;;;;;19.18;39.93;100086.13;5011186;28;20033;-69
2022/04/23 06:01:34;;;;;;;13.95;8.35;;;;;;;19.32;39.72;100081.59;5025504;28;20108;-69
2022/04/23 06:03:59;;;;;;;16.55;9.40;;;;;;;19.43;39.48;100084.56;5028013;28;20038;-69
2022/04/23 06:06:25;;;;;;;16.48;8.68;;;;;;;19.56;39.66;100081.91;5043922;28;20035;-69
2022/04/23 06:08:50;;;;;;;14.40;9.30;;;;;;;19.69;39.65;100079.19;5044631;28;20032;-68
2022/04/23 06:11:16;;;;;;;15.05;8.40;;;;;;;19.79;39.83;100086.13;5043184;28;20021;-69
2022/04/23 06:13:41;;;;;;;17.25;8.05;;;;;;;19.87;39.05;100085.91;5044262;28;20021;-69
2022/04/23 06:16:06;;;;;;;14.77;9.07;;;;;;;19.96;39.52;100084.69;5045247;28;20028;-69
2022/04/23 06:18:32;;;;;;;13.90;8.82;;;;;;;20.03;39.75;100086.34;5044496;28;20477;-68
2022/04/23 06:20:57;;;;;;;15.35;8.52;;;;;;;20.09;38.85;100092.84;5025342;28;20029;-69
2022/04/23 06:23:22;;;;;;;13.90;9.05;;;;;;;20.18;39.63;100089.69;5026846;28;20457;-68
2022/04/23 06:25:48;;;;;;;16.08;9.02;;;;;;;20.24;39.89;100094.31;5010131;28;20099;-69
2022/04/23 06:28:13;;;;;;;13.43;8.85;;;;;;;20.32;39.05;100080.50;5024801;28;20045;-69
2022/04/23 06:30:39;;;;;;;15.27;8.73;;;;;;;20.43;39.17;100080.94;5045984;28;20121;-69
2022/04/23 06:33:04;;;;;;;15.00;9.05;;;;;;;20.53;39.03;100073.16;5026197;28;20029;-69
2022/04/23 06:35:30;;;;;;;13.10;8.52;;;;;;;20.62;38.95;100082.78;5018716;28;20044;-69
2022/04/23 06:37:56;;;;;;;16.52;9.60;;;;;;;20.73;39.20;100076.69;5016421;28;20032;-69
2022/04/23 06:40:24;;;;;;;17.20;9.30;;;;;;;20.84;38.71;100074.16;5044517;28;20024;-69
2022/04/23 06:42:50;;;;;;;13.77;8.65;;;;;;;20.94;38.53;100079.13;5027364;28;20032;-68
2022/04/23 06:45:15;;;;;;;17.70;8.85;;;;;;;21.06;38.21;100069.25;5025048;28;20025;-68
2022/04/23 06:47:41;;;;;;;13.85;8.70;;;;;;;21.16;38.47;100072.38;5054937;28;20394;-68
2022/04/23 06:50:09;;;;;;;15.98;8.95;;;;;;;21.26;38.31;100063.75;5054958;28;20059;-70
2022/04/23 06:52:35;;;;;;;11.80;7.78;;;;;;;21.35;37.75;100071.47;5054872;28;20036;-69
2022/04/23 06:55:00;;;;;;;14.07;8.35;;;;;;;21.44;37.79;100070.13;5020750;28;20466;-69
2022/04/23 06:57:26;;;;;;;12.63;8.63;;;;;;;21.58;37.93;100070.06;5020387;28;20048;-70
2022/04/23 06:59:52;;;;;;;17.23;9.88;;;;;;;21.71;37.15;100069.97;5054473;28;20027;-69
2022/04/23 07:02:18;;;;;;;15.32;9.60;;;;;;;21.84;37.25;100068.00;5053341;28;20017;-68
2022/04/23 07:04:44;;;;;;;14.05;8.30;;;;;;;21.98;37.90;100072.34;5036952;28;20032;-67
2022/04/23 07:07:10;;;;;;;14.40;9.45;;;;;;;22.09;37.67;100067.19;5036596;28;20032;-67
2022/04/23 07:09:36;;;;;;;14.93;8.95;;;;;;;22.23;37.09;100061.41;5054094;28;20049;-68
2022/04/23 07:12:02;;;;;;;14.52;9.05;;;;;;;22.36;37.40;100061.28;5053882;28;20115;-67
2022/04/23 07:14:27;;;;;;;13.75;8.35;;;;;;;22.47;37.32;100060.56;5020253;28;20029;-68
2022/04/23 07:16:53;;;;;;;12.20;8.02;;;;;;;22.65;36.39;100064.41;5034133;28;20026;-67
2022/04/23 07:19:19;;;;;;;14.70;9.00;;;;;;;22.79;36.54;100052.28;5034510;28;20052;-67
2022/04/23 07:21:44;;;;;;;12.98;8.63;;;;;;;22.92;35.96;100058.41;5034542;28;20025;-66
2022/04/23 07:24:10;;;;;;;14.95;7.78;;;;;;;23.06;35.90;100053.66;5034289;28;20029;-65
2022/04/23 07:26:36;;;;;;;21.88;8.13;;;;;;;23.16;36.53;100071.16;5034675;28;20151;-67
2022/04/23 07:29:05;;;;;;;13.73;8.43;;;;;;;23.18;36.23;100051.78;5034462;28;20103;-68
2022/04/23 07:31:30;;;;;;;12.13;7.95;;;;;;;23.27;36.64;100055.03;5040777;28;20025;-67
2022/04/23 07:39:24;;;;;;;14.45;7.53;;;;;;;23.68;36.15;100046.91;5054037;28;20059;-67
2022/04/23 07:41:49;;;;;;;14.35;7.88;;;;;;;23.83;35.13;100041.84;5054160;28;20025;-67
2022/04/23 07:44:14;;;;;;;11.68;6.63;;;;;;;23.98;35.88;100052.34;5053688;28;20021;-67
2022/04/23 07:46:40;;;;;;;11.88;7.18;;;;;;;24.06;35.49;100054.75;5055464;28;20025;-67
2022/04/23 07:49:05;;;;;;;13.25;7.65;;;;;;;24.17;35.34;100062.16;5058262;28;20052;-67
2022/04/23 07:51:30;;;;;;;10.95;7.30;;;;;;;24.22;34.55;100046.69;5057688;28;20032;-67
2022/04/23 07:53:56;;;;;;;11.52;7.05;;;;;;;24.30;34.79;100053.72;5058676;28;20025;-67
2022/04/23 07:56:22;;;;;;;11.50;7.00;;;;;;;24.33;34.85;100042.28;5057469;28;20025;-67
2022/04/23 07:58:48;;;;;;;10.35;6.53;;;;;;;24.41;34.49;100046.56;5057861;28;20029;-67
2022/04/23 08:01:13;;;;;;;10.68;6.85;;;;;;;24.55;34.89;100042.53;5039641;28;20029;-67
2022/04/23 08:03:38;;;;;;;10.02;6.60;;;;;;;24.67;34.33;100051.56;5039745;28;20033;-67
2022/04/23 08:06:04;;;;;;;13.30;7.30;;;;;;;24.80;34.47;100046.69;5057444;28;20025;-67
2022/04/23 08:08:29;;;;;;;14.10;7.25;;;;;;;24.89;33.67;100045.25;5039414;28;20033;-67
2022/04/23 08:10:54;;;;;;;11.25;6.75;;;;;;;24.88;34.24;100049.06;5057801;28;20032;-67
2022/04/23 08:13:20;;;;;;;9.48;6.75;;;;;;;24.94;34.48;100047.25;5057482;28;20111;-67
2022/04/23 08:15:46;;;;;;;17.15;7.53;;;;;;;25.02;33.84;100048.78;5057477;28;20466;-67
2022/04/23 08:18:12;;;;;;;13.23;7.40;;;;;;;24.93;34.42;100048.31;5057444;28;20029;-67
2022/04/23 08:20:41;;;;;;;9.25;6.43;;;;;;;25.06;34.06;100049.97;5057300;28;20081;-66
2022/04/23 08:23:07;;;;;;;9.55;6.60;;;;;;;25.07;34.13;100051.66;5056471;28;20017;-67
2022/04/23 08:25:32;;;;;;;10.82;6.72;;;;;;;25.08;33.63;100045.09;5057002;28;20103;-67
2022/04/23 08:30:41;;;;;;;10.25;6.30;;;;;;;25.34;33.68;100063.72;5041980;28;20039;-66
2022/04/23 08:33:07;;;;;;;11.05;6.80;;;;;;;25.40;33.33;100052.59;5057285;28;20025;-66
2022/04/23 08:35:34;;;;;;;8.13;6.18;;;;;;;25.48;33.63;100059.66;5057091;28;20100;-67
2022/04/23 08:37:59;;;;;;;9.63;6.40;;;;;;;25.64;33.43;100058.84;5056443;28;20453;-67
2022/04/23 08:40:29;;;;;;;10.70;6.00;;;;;;;25.82;32.77;100055.91;5056770;28;20444;-67
2022/04/23 08:42:55;;;;;;;9.70;6.22;;;;;;;25.89;32.64;100062.06;5039169;28;20052;-67
2022/04/23 08:45:20;;;;;;;7.32;5.68;;;;;;;25.75;33.19;100060.69;5038863;28;20053;-66
2022/04/23 08:47:46;;;;;;;7.43;5.68;;;;;;;25.54;32.81;100057.84;5056682;28;20021;-67
2022/04/23 08:50:12;;;;;;;12.38;6.25;;;;;;;25.53;33.42;100057.00;5056855;28;20036;-66
2022/04/23 08:52:41;;;;;;;10.02;5.93;;;;;;;25.92;32.78;100057.97;5056618;28;20028;-66
2022/04/23 08:55:07;;;;;;;7.72;5.53;;;;;;;26.03;32.75;100055.16;5056792;28;20074;-66
2022/04/23 08:57:33;;;;;;;13.52;5.50;;;;;;;26.32;32.34;100055.09;5055951;28;20490;-67
2022/04/23 08:59:59;;;;;;;11.25;5.40;;;;;;;26.37;32.47;100058.78;5056328;28;20079;-67
2022/04/23 09:02:26;;;;;;;10.43;5.72;;;;;;;26.07;33.09;100060.16;5056559;28;20059;-66
2022/04/23 09:04:54;;;;;;;8.07;5.13;;;;;;;25.84;32.67;100053.72;5056556;28;20025;-66
2022/04/23 09:07:27;;;;;;;6.45;5.03;;;;;;;25.79;32.59;100056.41;5056635;28;20455;-67
2022/04/23 09:09:54;;;;;;;6.85;4.40;;;;;;;25.97;32.69;100053.41;5056908;28;20390;-67
2022/04/23 09:12:22;;;;;;;5.88;4.57;;;;;;;26.28;32.63;100053.94;5056402;28;20035;-67
2022/04/23 09:14:48;;;;;;;10.90;5.13;;;;;;;26.49;32.31;100050.44;5056080;28;20024;-66
2022/04/23 09:25:39;;;;;;;6.88;4.78;;;;;;;27.29;31.76;100042.47;5056088;28;20548;-67
2022/04/23 09:28:24;;;;;;;7.40;4.50;;;;;;;27.43;31.63;100034.66;5055787;28;20498;-67
2022/04/23 09:30:51;;;;;;;7.38;5.07;;;;;;;27.64;31.08;100042.03;5055981;28;20086;-68
2022/04/23 09:33:17;;;;;;;7.65;5.63;;;;;;;27.63;30.87;100051.41;5055999;28;20037;-66
2022/04/23 09:35:59;;;;;;;7.45;4.93;;;;;;;27.40;30.91;100033.22;5055866;28;20017;-67
2022/04/23 09:38:25;;;;;;;6.55;5.03;;;;;;;27.77;30.90;100036.13;5056038;28;20033;-67
2022/04/23 09:41:15;;;;;;;8.02;4.97;;;;;;;27.94;30.47;100042.34;5055920;28;20025;-67
2022/04/23 09:43:45;;;;;;;6.32;4.88;;;;;;;27.64;31.33;100036.53;5055790;28;20025;-67
2022/04/23 09:46:10;;;;;;;6.20;4.80;;;;;;;27.82;30.39;100036.16;5055751;28;20029;-67
2022/04/23 09:48:38;;;;;;;6.78;5.03;;;;;;;27.51;31.59;100032.28;5055960;28;20043;-67
2022/04/23 09:51:04;;;;;;;13.35;5.07;;;;;;;27.25;31.37;100037.75;5055783;28;20025;-68
2022/04/23 09:53:29;;;;;;;9.82;4.80;;;;;;;26.97;31.33;100031.34;5055184;28;20474;-67
2022/04/23 09:55:59;;;;;;;8.07;5.25;;;;;;;27.43;30.69;100034.66;5055905;28;20027;-66
2022/04/23 09:58:31;;;;;;;7.22;5.60;;;;;;;27.66;30.61;100028.84;5056204;28;20070;-67
2022/04/23 10:00:57;;;;;;;11.18;4.70;;;;;;;27.41;30.94;100036.84;5055568;28;20052;-68
2022/04/23 10:03:28;;;;;;;8.05;5.20;;;;;;;27.71;30.84;100031.66;5037430;28;20386;-67
2022/04/23 10:05:54;;;;;;;6.43;4.53;;;;;;;28.04;30.44;100030.59;5055982;28;20029;-67
2022/04/23 10:08:25;;;;;;;10.35;4.72;;;;;;;28.41;30.41;100025.94;5054416;28;20087;-67
2022/04/23 10:10:53;;;;;;;9.60;5.30;;;;;;;28.83;29.83;100031.44;5055080;28;20024;-66
2022/04/23 10:13:21;;;;;;;8.23;5.28;;;;;;;29.01;29.06;100024.66;5055100;28;20070;-68
2022/04/23 10:15:47;;;;;;;7.82;5.15;;;;;;;28.61;29.43;100026.06;5050450;28;20029;-66
2022/04/23 10:18:13;;;;;;;9.30;4.97;;;;;;;28.83;29.61;100029.53;5035853;28;20497;-67
2022/04/23 10:21:01;;;;;;;9.05;5.47;;;;;;;29.44;29.05;100025.09;5054900;28;20055;-68
2022/04/23 10:23:48;;;;;;;8.00;5.53;;;;;;;30.08;28.58;100030.16;5054661;28;20428;-68
2022/04/23 10:26:51;;;;;;;5.75;4.90;;;;;;;30.57;28.44;100022.94;5036306;28;20032;-67
2022/04/23 10:29:22;;;;;;;17.73;5.30;;;;;;;30.80;28.52;100021.47;5019794;28;20052;-67
2022/04/23 10:32:13;;;;;;;14.25;5.10;;;;;;;30.65;28.69;100021.53;5054059;28;20033;-67
2022/04/23 10:34:39;;;;;;;11.63;5.68;;;;;;;30.19;28.71;100018.00;5054134;28;20025;-69
2022/04/23 10:37:25;;;;;;;12.00;5.70;;;;;;;29.68;29.22;100021.78;5054311;28;20025;-67
2022/04/23 10:39:50;;;;;;;7.13;5.40;;;;;;;29.68;28.91;100016.28;5053154;28;20025;-67
2022/04/23 10:42:17;;;;;;;7.65;5.40;;;;;;;29.45;29.71;100023.16;5054129;28;20029;-68
2022/04/23 10:44:44;;;;;;;8.40;5.22;;;;;;;30.06;28.83;100017.72;5054701;28;20417;-67
2022/04/23 10:47:30;;;;;;;9.95;4.82;;;;;;;29.86;28.48;100007.50;5053926;28;20032;-66
2022/04/23 10:50:15;;;;;;;11.15;5.35;;;;;;;29.54;29.43;100004.13;5054298;28;20027;-66
2022/04/23 10:52:41;;;;;;;9.07;5.40;;;;;;;29.33;29.45;100004.09;5055383;28;20079;-66
2022/04/23 10:55:08;;;;;;;8.50;4.60;;;;;;;29.45;28.39;100004.66;5054462;28;20025;-67
2022/04/23 10:57:34;;;;;;;5.93;4.63;;;;;;;29.16;28.75;100000.69;5036682;28;20052;-67
2022/04/23 11:00:13;;;;;;;7.30;4.22;;;;;;;29.42;28.15;100005.22;5054435;28;20036;-66
2022/04/23 11:02:39;;;;;;;9.30;4.55;;;;;;;29.38;28.27;100006.84;5054266;28;20029;-65
2022/04/23 11:13:55;;;;;;;7.22;4.47;;;;;;;31.89;26.49;99989.06;5053486;28;20031;-67
2022/04/23 11:16:22;;;;;;;5.97;4.75;;;;;;;32.19;26.71;99984.09;5052359;28;20013;-66
2022/04/23 11:18:55;;;;;;;6.80;5.00;;;;;;;31.89;26.65;99986.31;5035842;28;20103;-68
2022/04/23 11:21:23;;;;;;;5.20;4.30;;;;;;;32.22;25.48;99989.06;5053281;28;20036;-68
2022/04/23 11:23:49;;;;;;;6.78;4.50;;;;;;;32.65;26.25;99992.00;5053726;28;20402;-66
2022/04/23 11:26:18;;;;;;;8.52;5.13;;;;;;;33.04;26.14;99966.81;5053630;28;20032;-67
2022/04/23 11:28:44;;;;;;;9.95;4.45;;;;;;;33.31;25.21;99978.94;5053390;28;20414;-67
2022/04/23 11:31:14;;;;;;;5.97;3.80;;;;;;;33.35;25.01;99981.94;5035888;28;20134;-67
2022/04/23 11:33:54;;;;;;;5.90;4.55;;;;;;;33.42;24.55;99979.59;5035549;28;20021;-67
2022/04/23 11:36:24;;;;;;;5.70;3.72;;;;;;;33.28;24.85;99984.25;5053426;28;20055;-66
2022/04/23 11:38:50;;;;;;;5.82;4.18;;;;;;;33.09;25.85;99975.09;5035597;28;20484;-67
2022/04/23 11:41:25;;;;;;;5.38;4.22;;;;;;;33.07;25.24;99978.19;5053101;28;20037;-67
2022/04/23 11:43:51;;;;;;;8.68;5.13;;;;;;;33.12;25.88;99974.50;5035307;28;20463;-67